sensor_id;sensor_type;location;lat;lon;timestamp;pressure;altitude;pressure_sealevel;temperature;humidity
56992;BME280;42885;49.754;18.636;2023-08-01T00:02:05;97562.81;;;22.70;63.80
56992;BME280;42885;49.754;18.636;2023-08-01T00:04:36;97554.59;;;22.76;63.25
56992;BME280;42885;49.754;18.636;2023-08-01T00:07:07;97542.34;;;22.81;63.50
56992;BME280;42885;49.754;18.636;2023-08-01T00:09:37;97551.41;;;22.76;64.57
56992;BME280;42885;49.754;18.636;2023-08-01T00:12:11;97540.11;;;22.74;63.06
56992;BME280;42885;49.754;18.636;2023-08-01T00:14:42;97543.05;;;22.53;63.43
56992;BME280;42885;49.754;18.636;2023-08-01T00:17:16;97543.63;;;22.60;64.19
56992;BME280;42885;49.754;18.636;2023-08-01T00:19:53;97544.59;;;22.48;64.69
56992;BME280;42885;49.754;18.636;2023-08-01T00:22:24;97540.91;;;22.49;64.36
56992;BME280;42885;49.754;18.636;2023-08-01T00:24:57;97534.05;;;22.39;65.75
56992;BME280;42885;49.754;18.636;2023-08-01T00:27:27;97531.73;;;22.99;63.40
56992;BME280;42885;49.754;18.636;2023-08-01T00:29:58;97525.38;;;22.41;65.00
56992;BME280;42885;49.754;18.636;2023-08-01T00:32:29;97529.23;;;22.39;66.32
56992;BME280;42885;49.754;18.636;2023-08-01T00:35:06;97522.05;;;22.39;65.81
56992;BME280;42885;49.754;18.636;2023-08-01T00:37:39;97510.09;;;22.24;66.93
56992;BME280;42885;49.754;18.636;2023-08-01T00:40:10;97515.73;;;22.25;67.85
56992;BME280;42885;49.754;18.636;2023-08-01T00:42:45;97515.84;;;22.17;67.61
56992;BME280;42885;49.754;18.636;2023-08-01T00:45:15;97504.41;;;22.12;67.83
56992;BME280;42885;49.754;18.636;2023-08-01T00:47:48;97499.92;;;22.13;67.30
56992;BME280;42885;49.754;18.636;2023-08-01T00:50:22;97497.53;;;22.29;67.63
56992;BME280;42885;49.754;18.636;2023-08-01T00:52:56;97494.77;;;22.11;67.77
56992;BME280;42885;49.754;18.636;2023-08-01T00:55:29;97496.34;;;22.06;68.62
56992;BME280;42885;49.754;18.636;2023-08-01T00:58:00;97486.46;;;22.10;68.35
56992;BME280;42885;49.754;18.636;2023-08-01T01:00:31;97473.95;;;22.63;65.91
56992;BME280;42885;49.754;18.636;2023-08-01T01:03:04;97471.84;;;22.06;68.72
56992;BME280;42885;49.754;18.636;2023-08-01T01:05:37;97464.16;;;21.96;68.55
56992;BME280;42885;49.754;18.636;2023-08-01T01:08:09;97463.03;;;21.80;70.55
56992;BME280;42885;49.754;18.636;2023-08-01T01:10:40;97459.70;;;21.78;71.25
56992;BME280;42885;49.754;18.636;2023-08-01T01:13:11;97446.81;;;21.85;71.08
56992;BME280;42885;49.754;18.636;2023-08-01T01:15:45;97456.41;;;21.76;72.38
56992;BME280;42885;49.754;18.636;2023-08-01T01:18:16;97451.30;;;21.55;73.72
56992;BME280;42885;49.754;18.636;2023-08-01T01:20:47;97447.88;;;21.61;73.91
56992;BME280;42885;49.754;18.636;2023-08-01T01:23:24;97442.24;;;21.60;73.79
56992;BME280;42885;49.754;18.636;2023-08-01T01:25:57;97440.52;;;21.52;75.40
56992;BME280;42885;49.754;18.636;2023-08-01T01:28:30;97430.27;;;21.45;75.67
56992;BME280;42885;49.754;18.636;2023-08-01T01:31:02;97431.72;;;21.32;76.93
56992;BME280;42885;49.754;18.636;2023-08-01T01:33:33;97432.50;;;21.37;77.35
56992;BME280;42885;49.754;18.636;2023-08-01T01:36:04;97425.41;;;21.49;77.09
56992;BME280;42885;49.754;18.636;2023-08-01T01:38:35;97414.39;;;21.37;77.77
56992;BME280;42885;49.754;18.636;2023-08-01T01:41:12;97417.20;;;21.39;77.70
56992;BME280;42885;49.754;18.636;2023-08-01T01:43:43;97407.74;;;21.37;78.08
56992;BME280;42885;49.754;18.636;2023-08-01T01:46:14;97409.94;;;21.33;78.45
56992;BME280;42885;49.754;18.636;2023-08-01T01:48:45;97407.14;;;21.15;81.01
56992;BME280;42885;49.754;18.636;2023-08-01T01:51:16;97396.52;;;21.11;79.99
56992;BME280;42885;49.754;18.636;2023-08-01T01:53:47;97399.01;;;21.13;79.94
56992;BME280;42885;49.754;18.636;2023-08-01T01:56:18;97396.88;;;21.27;78.92
56992;BME280;42885;49.754;18.636;2023-08-01T01:58:49;97392.24;;;21.25;78.36
56992;BME280;42885;49.754;18.636;2023-08-01T02:01:24;97391.63;;;21.34;77.90
56992;BME280;42885;49.754;18.636;2023-08-01T02:03:54;97382.95;;;21.36;77.70
56992;BME280;42885;49.754;18.636;2023-08-01T02:06:29;97386.72;;;21.27;78.88
56992;BME280;42885;49.754;18.636;2023-08-01T02:09:03;97384.12;;;21.23;79.62
56992;BME280;42885;49.754;18.636;2023-08-01T02:11:39;97377.15;;;21.22;78.71
56992;BME280;42885;49.754;18.636;2023-08-01T02:14:10;97384.14;;;21.03;79.89
56992;BME280;42885;49.754;18.636;2023-08-01T02:16:41;97378.16;;;20.82;82.19
56992;BME280;42885;49.754;18.636;2023-08-01T02:19:15;97371.30;;;20.92;81.60
56992;BME280;42885;49.754;18.636;2023-08-01T02:21:46;97371.62;;;20.93;81.77
56992;BME280;42885;49.754;18.636;2023-08-01T02:24:16;97367.25;;;20.96;82.40
56992;BME280;42885;49.754;18.636;2023-08-01T02:26:48;97366.09;;;20.95;81.86
56992;BME280;42885;49.754;18.636;2023-08-01T02:29:19;97361.22;;;21.17;79.34
56992;BME280;42885;49.754;18.636;2023-08-01T02:31:50;97360.90;;;21.16;79.91
56992;BME280;42885;49.754;18.636;2023-08-01T02:34:24;97355.66;;;21.08;78.75
56992;BME280;42885;49.754;18.636;2023-08-01T02:36:54;97347.02;;;21.25;77.51
56992;BME280;42885;49.754;18.636;2023-08-01T02:39:25;97346.56;;;21.32;77.32
56992;BME280;42885;49.754;18.636;2023-08-01T02:41:56;97341.58;;;21.18;76.86
56992;BME280;42885;49.754;18.636;2023-08-01T02:44:27;97349.75;;;21.32;77.03
56992;BME280;42885;49.754;18.636;2023-08-01T02:46:58;97343.66;;;21.27;76.00
56992;BME280;42885;49.754;18.636;2023-08-01T02:49:29;97341.34;;;21.24;77.84
56992;BME280;42885;49.754;18.636;2023-08-01T02:52:00;97333.96;;;21.30;76.01
56992;BME280;42885;49.754;18.636;2023-08-01T02:54:32;97336.69;;;21.26;74.75
56992;BME280;42885;49.754;18.636;2023-08-01T02:57:03;97326.91;;;22.00;71.69
56992;BME280;42885;49.754;18.636;2023-08-01T02:59:36;97333.13;;;21.45;73.28
56992;BME280;42885;49.754;18.636;2023-08-01T03:02:07;97328.78;;;21.33;73.99
56992;BME280;42885;49.754;18.636;2023-08-01T03:04:38;97327.56;;;21.51;73.47
56992;BME280;42885;49.754;18.636;2023-08-01T03:07:09;97325.91;;;21.50;73.69
56992;BME280;42885;49.754;18.636;2023-08-01T03:09:39;97320.03;;;21.54;74.03
56992;BME280;42885;49.754;18.636;2023-08-01T03:12:12;97317.54;;;21.42;73.19
56992;BME280;42885;49.754;18.636;2023-08-01T03:14:49;97308.13;;;21.50;73.27
56992;BME280;42885;49.754;18.636;2023-08-01T03:17:20;97309.31;;;21.48;73.45
56992;BME280;42885;49.754;18.636;2023-08-01T03:19:51;97304.33;;;21.59;72.95
56992;BME280;42885;49.754;18.636;2023-08-01T03:22:25;97303.77;;;21.64;72.56
56992;BME280;42885;49.754;18.636;2023-08-01T03:24:56;97295.94;;;21.52;73.63
56992;BME280;42885;49.754;18.636;2023-08-01T03:27:27;97302.16;;;21.59;73.42
56992;BME280;42885;49.754;18.636;2023-08-01T03:29:58;97301.84;;;21.58;72.75
56992;BME280;42885;49.754;18.636;2023-08-01T03:32:29;97287.94;;;21.67;73.34
56992;BME280;42885;49.754;18.636;2023-08-01T03:35:04;97294.56;;;21.56;73.25
56992;BME280;42885;49.754;18.636;2023-08-01T03:37:35;97292.78;;;21.52;74.29
56992;BME280;42885;49.754;18.636;2023-08-01T03:40:07;97290.64;;;21.63;74.96
56992;BME280;42885;49.754;18.636;2023-08-01T03:42:41;97292.36;;;21.59;75.20
56992;BME280;42885;49.754;18.636;2023-08-01T03:45:14;97286.95;;;21.68;75.17
56992;BME280;42885;49.754;18.636;2023-08-01T03:47:45;97280.04;;;21.73;75.55
56992;BME280;42885;49.754;18.636;2023-08-01T03:50:19;97287.77;;;21.79;75.29
56992;BME280;42885;49.754;18.636;2023-08-01T03:52:51;97288.34;;;21.75;76.06
56992;BME280;42885;49.754;18.636;2023-08-01T03:55:22;97287.41;;;21.67;75.26
56992;BME280;42885;49.754;18.636;2023-08-01T03:57:56;97283.76;;;21.68;76.38
56992;BME280;42885;49.754;18.636;2023-08-01T04:00:27;97283.15;;;21.77;75.74
56992;BME280;42885;49.754;18.636;2023-08-01T04:03:01;97281.38;;;21.84;76.33
56992;BME280;42885;49.754;18.636;2023-08-01T04:05:32;97269.97;;;21.80;76.00
56992;BME280;42885;49.754;18.636;2023-08-01T04:08:03;97269.97;;;21.80;76.00
56992;BME280;42885;49.754;18.636;2023-08-01T04:10:33;97274.72;;;21.84;77.06
56992;BME280;42885;49.754;18.636;2023-08-01T04:13:07;97276.38;;;21.96;76.31
56992;BME280;42885;49.754;18.636;2023-08-01T04:15:38;97272.48;;;21.99;76.77
56992;BME280;42885;49.754;18.636;2023-08-01T04:18:12;97264.05;;;22.06;77.26
56992;BME280;42885;49.754;18.636;2023-08-01T04:20:46;97258.14;;;22.11;77.13
56992;BME280;42885;49.754;18.636;2023-08-01T04:23:17;97268.80;;;22.11;78.55
56992;BME280;42885;49.754;18.636;2023-08-01T04:25:47;97268.61;;;22.23;77.93
56992;BME280;42885;49.754;18.636;2023-08-01T04:28:18;97264.09;;;22.24;76.95
56992;BME280;42885;49.754;18.636;2023-08-01T04:31:01;97260.62;;;22.23;77.73
56992;BME280;42885;49.754;18.636;2023-08-01T04:33:32;97255.13;;;22.43;76.50
56992;BME280;42885;49.754;18.636;2023-08-01T04:36:03;97258.69;;;22.39;77.32
56992;BME280;42885;49.754;18.636;2023-08-01T04:38:34;97252.79;;;22.54;78.03
56992;BME280;42885;49.754;18.636;2023-08-01T04:41:05;97260.80;;;22.72;76.66
56992;BME280;42885;49.754;18.636;2023-08-01T04:43:36;97260.80;;;22.72;78.68
56992;BME280;42885;49.754;18.636;2023-08-01T04:46:06;97250.88;;;22.77;78.81
56992;BME280;42885;49.754;18.636;2023-08-01T04:48:37;97253.59;;;22.73;78.96
56992;BME280;42885;49.754;18.636;2023-08-01T04:51:08;97253.88;;;22.67;79.57
56992;BME280;42885;49.754;18.636;2023-08-01T04:53:39;97262.94;;;22.73;80.03
56992;BME280;42885;49.754;18.636;2023-08-01T04:56:28;97256.98;;;22.71;80.35
56992;BME280;42885;49.754;18.636;2023-08-01T04:58:59;97256.55;;;22.67;81.30
56992;BME280;42885;49.754;18.636;2023-08-01T05:01:34;97252.91;;;22.75;81.11
56992;BME280;42885;49.754;18.636;2023-08-01T05:04:05;97247.95;;;22.72;82.81
56992;BME280;42885;49.754;18.636;2023-08-01T05:06:36;97252.08;;;22.57;82.59
56992;BME280;42885;49.754;18.636;2023-08-01T05:09:10;97251.02;;;22.68;84.21
56992;BME280;42885;49.754;18.636;2023-08-01T05:11:59;97247.05;;;22.58;84.37
56992;BME280;42885;49.754;18.636;2023-08-01T05:14:40;97248.70;;;22.59;84.93
56992;BME280;42885;49.754;18.636;2023-08-01T05:17:12;97263.09;;;22.64;84.40
56992;BME280;42885;49.754;18.636;2023-08-01T05:19:42;97261.39;;;22.46;85.97
56992;BME280;42885;49.754;18.636;2023-08-01T05:22:13;97259.06;;;22.36;88.64
56992;BME280;42885;49.754;18.636;2023-08-01T05:25:03;97258.04;;;22.37;88.54
56992;BME280;42885;49.754;18.636;2023-08-01T05:27:36;97263.56;;;22.46;89.07
56992;BME280;42885;49.754;18.636;2023-08-01T05:30:07;97262.41;;;22.66;88.58
56992;BME280;42885;49.754;18.636;2023-08-01T05:32:38;97267.46;;;22.72;88.64
56992;BME280;42885;49.754;18.636;2023-08-01T05:35:13;97261.69;;;22.86;87.82
56992;BME280;42885;49.754;18.636;2023-08-01T05:37:44;97264.66;;;22.87;87.60
56992;BME280;42885;49.754;18.636;2023-08-01T05:40:15;97259.52;;;22.86;89.36
56992;BME280;42885;49.754;18.636;2023-08-01T05:42:53;97254.73;;;22.92;89.55
56992;BME280;42885;49.754;18.636;2023-08-01T05:45:24;97246.07;;;23.01;88.58
56992;BME280;42885;49.754;18.636;2023-08-01T05:48:03;97254.14;;;22.96;90.11
56992;BME280;42885;49.754;18.636;2023-08-01T05:50:32;97247.05;;;22.93;90.94
56992;BME280;42885;49.754;18.636;2023-08-01T05:53:03;97241.83;;;22.95;90.98
56992;BME280;42885;49.754;18.636;2023-08-01T05:55:40;97243.19;;;23.02;90.89
56992;BME280;42885;49.754;18.636;2023-08-01T05:58:11;97241.42;;;22.99;91.74
56992;BME280;42885;49.754;18.636;2023-08-01T06:00:42;97252.09;;;22.99;91.77
56992;BME280;42885;49.754;18.636;2023-08-01T06:03:13;97249.23;;;23.00;92.38
56992;BME280;42885;49.754;18.636;2023-08-01T06:05:44;97248.21;;;23.01;92.21
56992;BME280;42885;49.754;18.636;2023-08-01T06:08:14;97246.28;;;23.06;92.67
56992;BME280;42885;49.754;18.636;2023-08-01T06:10:46;97247.62;;;23.06;93.10
56992;BME280;42885;49.754;18.636;2023-08-01T06:13:19;97246.59;;;23.07;93.08
56992;BME280;42885;49.754;18.636;2023-08-01T06:15:49;97241.42;;;23.16;93.67
56992;BME280;42885;49.754;18.636;2023-08-01T06:18:27;97246.47;;;23.22;93.79
56992;BME280;42885;49.754;18.636;2023-08-01T06:20:57;97241.92;;;23.16;93.42
56992;BME280;42885;49.754;18.636;2023-08-01T06:23:31;97248.28;;;23.32;93.37
56992;BME280;42885;49.754;18.636;2023-08-01T06:26:11;97246.05;;;23.43;91.12
56992;BME280;42885;49.754;18.636;2023-08-01T06:28:42;97243.98;;;23.45;91.89
56992;BME280;42885;49.754;18.636;2023-08-01T06:31:15;97240.64;;;23.60;90.20
56992;BME280;42885;49.754;18.636;2023-08-01T06:33:45;97245.61;;;23.77;89.67
56992;BME280;42885;49.754;18.636;2023-08-01T06:36:18;97247.05;;;23.79;89.83
56992;BME280;42885;49.754;18.636;2023-08-01T06:38:49;97244.80;;;23.76;91.20
56992;BME280;42885;49.754;18.636;2023-08-01T06:41:20;97248.70;;;23.74;91.41
56992;BME280;42885;49.754;18.636;2023-08-01T06:43:52;97246.33;;;23.68;91.98
56992;BME280;42885;49.754;18.636;2023-08-01T06:46:23;97245.64;;;23.84;91.21
56992;BME280;42885;49.754;18.636;2023-08-01T06:48:54;97245.64;;;23.84;90.34
56992;BME280;42885;49.754;18.636;2023-08-01T06:51:25;97242.34;;;24.02;87.99
56992;BME280;42885;49.754;18.636;2023-08-01T06:53:56;97232.61;;;24.18;89.60
56992;BME280;42885;49.754;18.636;2023-08-01T06:56:26;97231.70;;;24.29;90.34
56992;BME280;42885;49.754;18.636;2023-08-01T06:58:58;97227.36;;;24.41;88.17
56992;BME280;42885;49.754;18.636;2023-08-01T07:01:32;97219.44;;;25.23;84.77
56992;BME280;42885;49.754;18.636;2023-08-01T07:04:14;97207.77;;;24.61;87.54
56992;BME280;42885;49.754;18.636;2023-08-01T07:06:45;97215.28;;;24.82;85.99
56992;BME280;42885;49.754;18.636;2023-08-01T07:09:20;97213.09;;;25.18;86.20
56992;BME280;42885;49.754;18.636;2023-08-01T07:11:57;97212.06;;;25.35;83.59
56992;BME280;42885;49.754;18.636;2023-08-01T07:14:30;97212.37;;;25.59;84.41
56992;BME280;42885;49.754;18.636;2023-08-01T07:17:00;97211.33;;;25.60;79.65
56992;BME280;42885;49.754;18.636;2023-08-01T07:19:31;97207.20;;;25.64;82.96
56992;BME280;42885;49.754;18.636;2023-08-01T07:22:02;97201.94;;;25.66;84.50
56992;BME280;42885;49.754;18.636;2023-08-01T07:24:33;97197.44;;;25.60;83.68
56992;BME280;42885;49.754;18.636;2023-08-01T07:27:04;97200.31;;;25.59;86.84
56992;BME280;42885;49.754;18.636;2023-08-01T07:29:35;97199.62;;;25.54;85.61
56992;BME280;42885;49.754;18.636;2023-08-01T07:32:06;97197.08;;;25.43;85.29
56992;BME280;42885;49.754;18.636;2023-08-01T07:34:37;97194.36;;;25.34;85.56
56992;BME280;42885;49.754;18.636;2023-08-01T07:37:07;97198.81;;;25.08;85.70
56992;BME280;42885;49.754;18.636;2023-08-01T07:39:41;97192.17;;;25.17;87.03
56992;BME280;42885;49.754;18.636;2023-08-01T07:42:11;97192.91;;;25.15;86.49
56992;BME280;42885;49.754;18.636;2023-08-01T07:44:45;97193.41;;;25.21;86.18
56992;BME280;42885;49.754;18.636;2023-08-01T07:47:16;97187.27;;;25.30;84.73
56992;BME280;42885;49.754;18.636;2023-08-01T07:49:47;97192.23;;;25.26;86.73
56992;BME280;42885;49.754;18.636;2023-08-01T07:52:24;97197.47;;;25.47;84.88
56992;BME280;42885;49.754;18.636;2023-08-01T07:54:58;97204.70;;;25.46;85.84
56992;BME280;42885;49.754;18.636;2023-08-01T07:57:29;97194.55;;;25.62;84.43
56992;BME280;42885;49.754;18.636;2023-08-01T08:00:00;97198.75;;;25.76;84.71
56992;BME280;42885;49.754;18.636;2023-08-01T08:02:33;97201.25;;;26.03;87.59
56992;BME280;42885;49.754;18.636;2023-08-01T08:05:10;97198.43;;;26.23;82.62
56992;BME280;42885;49.754;18.636;2023-08-01T08:07:44;97188.40;;;26.65;81.78
56992;BME280;42885;49.754;18.636;2023-08-01T08:10:15;97185.55;;;27.16;79.62
56992;BME280;42885;49.754;18.636;2023-08-01T08:12:46;97183.22;;;27.51;75.08
56992;BME280;42885;49.754;18.636;2023-08-01T08:15:17;97177.81;;;27.08;63.08
56992;BME280;42885;49.754;18.636;2023-08-01T08:17:49;97167.34;;;27.28;64.47
56992;BME280;42885;49.754;18.636;2023-08-01T08:20:23;97166.95;;;27.03;57.86
56992;BME280;42885;49.754;18.636;2023-08-01T08:22:54;97167.00;;;27.05;56.56
56992;BME280;42885;49.754;18.636;2023-08-01T08:25:24;97170.66;;;26.83;56.15
56992;BME280;42885;49.754;18.636;2023-08-01T08:27:59;97166.88;;;27.31;60.72
56992;BME280;42885;49.754;18.636;2023-08-01T08:30:30;97167.53;;;27.05;57.37
56992;BME280;42885;49.754;18.636;2023-08-01T08:33:03;97167.00;;;27.15;55.78
56992;BME280;42885;49.754;18.636;2023-08-01T08:35:33;97175.59;;;27.05;57.72
56992;BME280;42885;49.754;18.636;2023-08-01T08:38:07;97173.34;;;27.11;55.00
56992;BME280;42885;49.754;18.636;2023-08-01T08:40:40;97173.34;;;27.11;55.00
56992;BME280;42885;49.754;18.636;2023-08-01T08:43:11;97196.31;;;26.79;53.40
56992;BME280;42885;49.754;18.636;2023-08-01T08:45:43;97183.70;;;26.79;53.18
56992;BME280;42885;49.754;18.636;2023-08-01T08:48:19;97183.20;;;26.71;53.75
56992;BME280;42885;49.754;18.636;2023-08-01T08:50:51;97181.55;;;26.79;54.22
56992;BME280;42885;49.754;18.636;2023-08-01T08:53:22;97178.63;;;26.71;52.67
56992;BME280;42885;49.754;18.636;2023-08-01T08:55:53;97179.89;;;26.50;53.11
56992;BME280;42885;49.754;18.636;2023-08-01T08:58:24;97190.70;;;26.43;54.08
56992;BME280;42885;49.754;18.636;2023-08-01T09:01:01;97179.98;;;26.52;55.17
56992;BME280;42885;49.754;18.636;2023-08-01T09:03:33;97182.16;;;26.90;55.76
56992;BME280;42885;49.754;18.636;2023-08-01T09:06:15;97179.92;;;26.78;54.30
56992;BME280;42885;49.754;18.636;2023-08-01T09:08:55;97184.66;;;26.38;55.75
56992;BME280;42885;49.754;18.636;2023-08-01T09:11:21;97190.95;;;26.70;57.40
56992;BME280;42885;49.754;18.636;2023-08-01T09:13:52;97184.00;;;26.43;57.43
56992;BME280;42885;49.754;18.636;2023-08-01T09:16:23;97188.67;;;26.29;59.52
56992;BME280;42885;49.754;18.636;2023-08-01T09:19:01;97182.40;;;26.01;58.80
56992;BME280;42885;49.754;18.636;2023-08-01T09:21:33;97181.63;;;25.77;61.92
56992;BME280;42885;49.754;18.636;2023-08-01T09:24:22;97178.59;;;25.58;63.69
56992;BME280;42885;49.754;18.636;2023-08-01T09:26:45;97174.22;;;25.63;64.28
56992;BME280;42885;49.754;18.636;2023-08-01T09:29:20;97184.47;;;25.73;65.78
56992;BME280;42885;49.754;18.636;2023-08-01T09:31:52;97180.97;;;25.56;68.50
56992;BME280;42885;49.754;18.636;2023-08-01T09:34:25;97184.39;;;25.32;70.60
56992;BME280;42885;49.754;18.636;2023-08-01T09:37:00;97177.50;;;25.10;73.15
56992;BME280;42885;49.754;18.636;2023-08-01T09:39:33;97172.19;;;25.04;76.57
56992;BME280;42885;49.754;18.636;2023-08-01T09:42:04;97182.87;;;24.81;80.21
56992;BME280;42885;49.754;18.636;2023-08-01T09:44:35;97174.84;;;24.81;82.41
56992;BME280;42885;49.754;18.636;2023-08-01T09:47:06;97186.10;;;24.53;87.99
56992;BME280;42885;49.754;18.636;2023-08-01T09:49:46;97189.63;;;24.40;92.34
56992;BME280;42885;49.754;18.636;2023-08-01T09:52:11;97190.08;;;24.17;92.02
56992;BME280;42885;49.754;18.636;2023-08-01T09:54:41;97191.20;;;24.12;94.94
56992;BME280;42885;49.754;18.636;2023-08-01T09:57:12;97179.67;;;24.11;96.39
56992;BME280;42885;49.754;18.636;2023-08-01T09:59:44;97173.31;;;24.05;100.00
56992;BME280;42885;49.754;18.636;2023-08-01T10:02:20;97169.71;;;23.96;100.00
56992;BME280;42885;49.754;18.636;2023-08-01T10:04:54;97168.38;;;23.96;100.00
56992;BME280;42885;49.754;18.636;2023-08-01T10:07:27;97174.11;;;23.92;100.00
56992;BME280;42885;49.754;18.636;2023-08-01T10:10:00;97174.92;;;23.86;100.00
56992;BME280;42885;49.754;18.636;2023-08-01T10:12:33;97174.21;;;23.75;100.00
56992;BME280;42885;49.754;18.636;2023-08-01T10:15:05;97169.19;;;23.62;100.00
56992;BME280;42885;49.754;18.636;2023-08-01T10:17:36;97169.77;;;23.51;100.00
56992;BME280;42885;49.754;18.636;2023-08-01T10:20:08;97168.08;;;23.30;100.00
56992;BME280;42885;49.754;18.636;2023-08-01T10:22:41;97167.88;;;23.07;100.00
56992;BME280;42885;49.754;18.636;2023-08-01T10:25:16;97168.79;;;23.03;100.00
56992;BME280;42885;49.754;18.636;2023-08-01T10:27:58;97158.87;;;22.83;100.00
56992;BME280;42885;49.754;18.636;2023-08-01T10:30:39;97158.81;;;22.70;100.00
56992;BME280;42885;49.754;18.636;2023-08-01T10:33:14;97158.98;;;22.79;100.00
56992;BME280;42885;49.754;18.636;2023-08-01T10:35:52;97157.31;;;22.78;100.00
56992;BME280;42885;49.754;18.636;2023-08-01T10:38:23;97165.84;;;22.78;100.00
56992;BME280;42885;49.754;18.636;2023-08-01T10:40:54;97161.72;;;22.75;100.00
56992;BME280;42885;49.754;18.636;2023-08-01T10:43:28;97163.72;;;22.84;100.00
56992;BME280;42885;49.754;18.636;2023-08-01T10:46:02;97161.84;;;22.78;100.00
56992;BME280;42885;49.754;18.636;2023-08-01T10:48:33;97164.95;;;22.64;100.00
56992;BME280;42885;49.754;18.636;2023-08-01T10:51:04;97161.28;;;22.72;100.00
56992;BME280;42885;49.754;18.636;2023-08-01T10:53:39;97164.55;;;22.67;100.00
56992;BME280;42885;49.754;18.636;2023-08-01T10:56:20;97167.38;;;22.59;100.00
56992;BME280;42885;49.754;18.636;2023-08-01T10:58:51;97167.03;;;22.68;100.00
56992;BME280;42885;49.754;18.636;2023-08-01T11:01:22;97165.17;;;22.69;100.00
56992;BME280;42885;49.754;18.636;2023-08-01T11:03:53;97155.26;;;22.56;100.00
56992;BME280;42885;49.754;18.636;2023-08-01T11:06:25;97163.91;;;22.47;100.00
56992;BME280;42885;49.754;18.636;2023-08-01T11:09:14;97151.48;;;22.54;100.00
56992;BME280;42885;49.754;18.636;2023-08-01T11:11:38;97155.08;;;22.58;100.00
56992;BME280;42885;49.754;18.636;2023-08-01T11:14:09;97153.41;;;22.50;100.00
56992;BME280;42885;49.754;18.636;2023-08-01T11:16:43;97152.70;;;22.41;100.00
56992;BME280;42885;49.754;18.636;2023-08-01T11:19:28;97154.09;;;22.37;100.00
56992;BME280;42885;49.754;18.636;2023-08-01T11:22:08;97163.36;;;22.23;100.00
56992;BME280;42885;49.754;18.636;2023-08-01T11:24:33;97156.59;;;22.10;100.00
56992;BME280;42885;49.754;18.636;2023-08-01T11:27:04;97162.33;;;22.07;100.00
56992;BME280;42885;49.754;18.636;2023-08-01T11:29:38;97158.16;;;21.97;100.00
56992;BME280;42885;49.754;18.636;2023-08-01T11:32:15;97157.47;;;21.78;100.00
56992;BME280;42885;49.754;18.636;2023-08-01T11:34:46;97151.84;;;21.77;100.00
56992;BME280;42885;49.754;18.636;2023-08-01T11:37:25;97150.01;;;21.77;100.00
56992;BME280;42885;49.754;18.636;2023-08-01T11:39:56;97148.23;;;21.73;100.00
56992;BME280;42885;49.754;18.636;2023-08-01T11:42:32;97147.41;;;21.73;100.00
56992;BME280;42885;49.754;18.636;2023-08-01T11:45:16;97143.52;;;21.65;100.00
56992;BME280;42885;49.754;18.636;2023-08-01T11:47:46;97130.97;;;21.80;100.00
56992;BME280;42885;49.754;18.636;2023-08-01T11:50:24;97129.64;;;21.80;100.00
56992;BME280;42885;49.754;18.636;2023-08-01T11:53:05;97135.16;;;21.79;100.00
56992;BME280;42885;49.754;18.636;2023-08-01T11:55:36;97139.34;;;21.88;100.00
56992;BME280;42885;49.754;18.636;2023-08-01T11:58:07;97130.17;;;21.80;100.00
56992;BME280;42885;49.754;18.636;2023-08-01T12:00:38;97128.75;;;21.84;100.00
56992;BME280;42885;49.754;18.636;2023-08-01T12:03:11;97132.39;;;21.76;100.00
56992;BME280;42885;49.754;18.636;2023-08-01T12:05:43;97131.55;;;21.76;100.00
56992;BME280;42885;49.754;18.636;2023-08-01T12:08:16;97137.31;;;21.79;100.00
56992;BME280;42885;49.754;18.636;2023-08-01T12:10:46;97131.45;;;21.91;100.00
56992;BME280;42885;49.754;18.636;2023-08-01T12:13:21;97122.63;;;21.72;100.00
56992;BME280;42885;49.754;18.636;2023-08-01T12:15:54;97122.94;;;21.73;100.00
56992;BME280;42885;49.754;18.636;2023-08-01T12:18:34;97126.17;;;21.80;100.00
56992;BME280;42885;49.754;18.636;2023-08-01T12:21:07;97124.02;;;21.68;100.00
56992;BME280;42885;49.754;18.636;2023-08-01T12:23:37;97126.48;;;21.81;100.00
56992;BME280;42885;49.754;18.636;2023-08-01T12:26:08;97124.19;;;21.78;100.00
56992;BME280;42885;49.754;18.636;2023-08-01T12:28:39;97122.04;;;21.88;100.00
56992;BME280;42885;49.754;18.636;2023-08-01T12:31:10;97126.23;;;21.76;100.00
56992;BME280;42885;49.754;18.636;2023-08-01T12:33:43;97120.45;;;21.83;100.00
56992;BME280;42885;49.754;18.636;2023-08-01T12:36:14;97117.81;;;22.53;100.00
56992;BME280;42885;49.754;18.636;2023-08-01T12:38:46;97127.44;;;22.02;100.00
56992;BME280;42885;49.754;18.636;2023-08-01T12:41:20;97129.80;;;22.00;100.00
56992;BME280;42885;49.754;18.636;2023-08-01T12:44:03;97128.73;;;21.95;100.00
56992;BME280;42885;49.754;18.636;2023-08-01T12:46:34;97136.42;;;21.83;100.00
56992;BME280;42885;49.754;18.636;2023-08-01T12:49:06;97124.45;;;21.72;100.00
56992;BME280;42885;49.754;18.636;2023-08-01T12:51:46;97130.61;;;21.83;100.00
56992;BME280;42885;49.754;18.636;2023-08-01T12:54:17;97135.94;;;21.72;100.00
56992;BME280;42885;49.754;18.636;2023-08-01T12:56:48;97128.49;;;21.79;100.00
56992;BME280;42885;49.754;18.636;2023-08-01T12:59:22;97136.26;;;21.73;100.00
56992;BME280;42885;49.754;18.636;2023-08-01T13:01:53;97136.52;;;21.68;100.00
56992;BME280;42885;49.754;18.636;2023-08-01T13:04:23;97138.52;;;21.77;100.00
56992;BME280;42885;49.754;18.636;2023-08-01T13:06:54;97140.38;;;21.76;100.00
56992;BME280;42885;49.754;18.636;2023-08-01T13:09:25;97136.94;;;21.61;100.00
56992;BME280;42885;49.754;18.636;2023-08-01T13:12:02;97136.86;;;21.54;100.00
56992;BME280;42885;49.754;18.636;2023-08-01T13:14:33;97136.31;;;21.69;100.00
56992;BME280;42885;49.754;18.636;2023-08-01T13:17:04;97126.34;;;21.67;100.00